createdAt,value
2019-01-13T00:01:47.730Z,7.97
2019-01-13T00:04:16.170Z,9.87
2019-01-13T00:06:44.510Z,10.37
2019-01-13T00:09:12.996Z,9.33
2019-01-13T00:11:41.345Z,9.47
2019-01-13T00:14:09.689Z,9.20
2019-01-13T00:16:38.179Z,12.73
2019-01-13T00:19:06.785Z,9.27
2019-01-13T00:21:35.446Z,10.43
2019-01-13T00:24:03.846Z,9.60
2019-01-13T00:26:32.229Z,8.47
2019-01-13T00:29:00.906Z,8.43
2019-01-13T00:31:29.329Z,11.70
2019-01-13T00:33:57.664Z,9.07
2019-01-13T00:36:27.187Z,10.63
2019-01-13T00:38:55.524Z,12.20
2019-01-13T00:41:23.886Z,11.07
2019-01-13T00:43:52.242Z,10.80
2019-01-13T00:46:20.600Z,10.77
2019-01-13T00:48:48.959Z,9.70
2019-01-13T00:51:17.293Z,9.33
2019-01-13T00:53:45.644Z,9.40
2019-01-13T00:56:13.969Z,11.33
2019-01-13T00:58:42.651Z,9.73
2019-01-13T01:01:10.996Z,10.83
2019-01-13T01:03:39.355Z,10.77
2019-01-13T01:06:07.782Z,11.43
2019-01-13T01:08:36.136Z,11.60
2019-01-13T01:11:04.480Z,12.00
2019-01-13T01:13:32.905Z,12.17
2019-01-13T01:16:01.255Z,9.83
2019-01-13T01:18:29.592Z,10.77
2019-01-13T01:20:57.960Z,13.57
2019-01-13T01:23:26.299Z,8.90
2019-01-13T01:25:54.794Z,13.37
2019-01-13T01:28:23.158Z,11.83
2019-01-13T01:30:51.505Z,12.37
2019-01-13T01:33:25.835Z,11.53
2019-01-13T01:35:49.889Z,11.53
2019-01-13T01:38:18.289Z,8.77
2019-01-13T01:40:46.638Z,9.93
2019-01-13T01:43:14.985Z,11.83
2019-01-13T01:45:43.327Z,12.60
2019-01-13T01:48:11.669Z,10.43
2019-01-13T01:50:40.034Z,10.63
2019-01-13T01:53:08.367Z,8.93
2019-01-13T01:55:36.902Z,9.63
2019-01-13T01:58:05.239Z,11.70
2019-01-13T02:00:40.340Z,11.00
2019-01-13T02:03:03.646Z,10.40
2019-01-13T02:05:32.001Z,12.00
2019-01-13T02:08:00.381Z,11.10
2019-01-13T02:10:29.077Z,11.47
2019-01-13T02:12:57.425Z,11.93
2019-01-13T02:15:25.758Z,8.77
2019-01-13T02:17:54.130Z,8.57
2019-01-13T02:20:22.535Z,9.40
2019-01-13T02:22:50.870Z,15.33
2019-01-13T02:25:20.618Z,14.57
2019-01-13T02:27:49.181Z,14.30
2019-01-13T02:30:18.839Z,15.80
2019-01-13T02:32:47.187Z,10.47
2019-01-13T02:35:15.705Z,13.50
2019-01-13T02:37:44.228Z,14.77
2019-01-13T02:40:13.873Z,15.33
2019-01-13T02:42:42.525Z,11.57
2019-01-13T02:45:12.739Z,15.40
2019-01-13T02:47:41.088Z,15.10
2019-01-13T02:50:10.510Z,10.67
2019-01-13T02:52:39.070Z,14.90
2019-01-13T02:55:07.536Z,13.87
2019-01-13T02:57:35.877Z,15.53
2019-01-13T03:00:11.921Z,15.90
2019-01-13T03:02:40.617Z,12.57
2019-01-13T03:05:10.197Z,11.77
2019-01-13T03:07:38.590Z,10.97
2019-01-13T03:10:08.577Z,14.00
2019-01-13T03:12:37.106Z,16.93
2019-01-13T03:15:06.797Z,17.03
2019-01-13T03:17:35.181Z,17.10
2019-01-13T03:20:05.090Z,16.33
2019-01-13T03:22:33.524Z,15.83
2019-01-13T03:25:01.856Z,19.53
2019-01-13T03:27:30.207Z,15.23
2019-01-13T03:29:59.729Z,8.17
2019-01-13T03:32:28.498Z,15.80
2019-01-13T03:34:56.846Z,9.20
2019-01-13T03:37:25.270Z,11.73
2019-01-13T03:39:53.650Z,14.73
2019-01-13T03:42:22.023Z,15.10
2019-01-13T03:44:50.697Z,13.83
2019-01-13T03:47:19.084Z,15.30
2019-01-13T03:49:47.494Z,15.20
2019-01-13T03:52:16.141Z,12.77
2019-01-13T03:54:44.486Z,13.50
2019-01-13T03:57:12.896Z,13.63
2019-01-13T03:59:41.244Z,13.77
2019-01-13T04:02:09.957Z,13.10
2019-01-13T04:04:38.309Z,14.30
2019-01-13T04:07:06.717Z,10.47
2019-01-13T04:09:35.150Z,14.47
2019-01-13T04:12:03.525Z,8.10
2019-01-13T04:14:31.890Z,14.33
2019-01-13T04:17:00.297Z,13.37
2019-01-13T04:19:28.919Z,11.30
2019-01-13T04:21:57.327Z,13.17
2019-01-13T04:24:25.748Z,14.90
2019-01-13T04:26:54.097Z,14.90
2019-01-13T04:29:22.738Z,14.23
2019-01-13T04:31:51.109Z,15.03
2019-01-13T04:34:19.472Z,10.00
2019-01-13T04:36:47.857Z,15.23
2019-01-13T04:39:16.230Z,13.23
2019-01-13T04:41:44.568Z,6.77
2019-01-13T04:44:12.999Z,13.43
2019-01-13T04:46:41.342Z,12.57
2019-01-13T04:49:09.745Z,14.00
2019-01-13T04:51:38.113Z,15.60
2019-01-13T04:54:06.469Z,13.33
2019-01-13T04:56:34.870Z,11.33
2019-01-13T04:59:03.254Z,14.40
2019-01-13T05:01:34.774Z,12.60
2019-01-13T05:04:01.995Z,10.87
2019-01-13T05:06:30.540Z,9.17
2019-01-13T05:08:58.923Z,11.27
2019-01-13T05:11:27.289Z,9.37
2019-01-13T05:13:55.682Z,11.53
2019-01-13T05:16:24.346Z,10.67
2019-01-13T05:18:52.742Z,11.43
2019-01-13T05:21:21.091Z,7.97
2019-01-13T05:23:50.400Z,6.33
2019-01-13T05:26:19.624Z,8.00
2019-01-13T05:28:48.385Z,7.43
2019-01-13T05:31:16.726Z,7.40
2019-01-13T05:33:45.469Z,4.77
2019-01-13T05:36:13.822Z,8.97
2019-01-13T05:38:42.224Z,7.83
2019-01-13T05:41:10.607Z,8.67
2019-01-13T05:43:38.956Z,3.50
2019-01-13T05:46:07.345Z,7.07
2019-01-13T05:48:36.017Z,6.67
2019-01-13T05:51:04.356Z,7.17
2019-01-13T05:53:32.701Z,4.00
2019-01-13T05:56:01.043Z,6.63
2019-01-13T05:58:29.385Z,6.10
2019-01-13T06:00:57.853Z,4.10
2019-01-13T06:03:26.180Z,8.30
2019-01-13T06:05:54.546Z,3.47
2019-01-13T06:08:23.437Z,8.23
2019-01-13T06:10:52.114Z,4.90
2019-01-13T06:13:20.794Z,6.90
2019-01-13T06:15:49.128Z,3.30
2019-01-13T06:18:17.478Z,7.97
2019-01-13T06:20:45.817Z,3.80
2019-01-13T06:23:14.161Z,4.60
2019-01-13T06:25:42.502Z,8.43
2019-01-13T06:28:10.850Z,6.23
2019-01-13T06:30:39.192Z,3.50
2019-01-13T06:33:07.532Z,4.10
2019-01-13T06:35:35.877Z,6.77
2019-01-13T06:38:04.218Z,6.80
2019-01-13T06:40:32.572Z,5.67
2019-01-13T06:43:02.082Z,5.80
2019-01-13T06:45:30.421Z,5.87
2019-01-13T06:47:58.773Z,5.97
2019-01-13T06:50:27.102Z,6.43
2019-01-13T06:52:55.439Z,6.00
2019-01-13T06:55:23.773Z,4.17
2019-01-13T06:57:52.119Z,4.63
2019-01-13T07:00:21.437Z,4.87
2019-01-13T07:02:49.773Z,2.87
2019-01-13T07:05:18.111Z,5.07
2019-01-13T07:07:46.749Z,4.63
2019-01-13T07:10:15.093Z,5.70
2019-01-13T07:12:43.427Z,4.00
2019-01-13T07:15:12.848Z,3.53
2019-01-13T07:17:41.182Z,3.70
2019-01-13T07:20:10.722Z,4.50
2019-01-13T07:22:39.057Z,3.60
2019-01-13T07:25:07.398Z,4.70
2019-01-13T07:27:35.746Z,4.13
2019-01-13T07:30:05.713Z,5.47
2019-01-13T07:32:34.060Z,3.37
2019-01-13T07:35:02.406Z,3.07
2019-01-13T07:37:30.772Z,3.60
2019-01-13T07:39:59.365Z,3.10
2019-01-13T07:42:27.843Z,4.33
2019-01-13T07:44:57.178Z,3.90
2019-01-13T07:47:25.522Z,4.30
2019-01-13T07:49:53.913Z,4.50
2019-01-13T07:52:23.276Z,5.00
2019-01-13T07:54:51.646Z,4.17
2019-01-13T07:57:20.276Z,4.80
2019-01-13T07:59:48.617Z,2.97
2019-01-13T08:02:17.991Z,3.40
2019-01-13T08:04:46.594Z,3.67
2019-01-13T08:07:14.933Z,1.97
2019-01-13T08:09:43.281Z,3.83
2019-01-13T08:12:11.632Z,3.37
2019-01-13T08:14:40.048Z,3.33
2019-01-13T08:17:08.392Z,3.57
2019-01-13T08:19:36.737Z,4.50
2019-01-13T08:22:05.084Z,3.97
2019-01-13T08:24:33.423Z,4.20
2019-01-13T08:27:01.769Z,5.17
2019-01-13T08:29:30.115Z,4.67
2019-01-13T08:31:58.469Z,3.23
2019-01-13T08:34:26.884Z,3.77
2019-01-13T08:36:55.529Z,4.43
2019-01-13T08:39:23.913Z,3.70
2019-01-13T08:41:52.313Z,4.80
2019-01-13T08:44:20.993Z,6.13
2019-01-13T08:46:49.447Z,4.40
2019-01-13T08:49:19.428Z,5.10
2019-01-13T08:51:47.770Z,3.00
2019-01-13T08:54:16.130Z,4.37
2019-01-13T08:56:44.585Z,4.83
2019-01-13T08:59:12.924Z,1.70
2019-01-13T09:01:41.262Z,2.20
2019-01-13T09:04:09.601Z,4.67
2019-01-13T09:06:37.941Z,4.40
2019-01-13T09:09:08.417Z,3.97
2019-01-13T09:11:36.761Z,5.67
2019-01-13T09:14:05.148Z,5.67
2019-01-13T09:16:33.538Z,5.00
2019-01-13T09:19:01.851Z,4.63
2019-01-13T09:21:30.190Z,5.17
2019-01-13T09:23:58.663Z,3.20
2019-01-13T09:26:27.084Z,4.93
2019-01-13T09:28:55.769Z,5.20
2019-01-13T09:31:24.176Z,4.80
2019-01-13T09:33:52.912Z,4.30
2019-01-13T09:36:21.271Z,5.43
2019-01-13T09:38:49.892Z,3.20
2019-01-13T09:41:18.272Z,6.00
2019-01-13T09:43:46.628Z,6.20
2019-01-13T09:46:14.955Z,5.57
2019-01-13T09:48:43.309Z,3.77
2019-01-13T09:51:11.642Z,4.23
2019-01-13T09:53:40.058Z,4.37
2019-01-13T09:56:08.410Z,6.60
2019-01-13T09:58:37.769Z,3.37
2019-01-13T10:01:06.563Z,4.23
2019-01-13T10:03:34.970Z,5.93
2019-01-13T10:06:03.606Z,7.47
2019-01-13T10:08:31.983Z,7.53
2019-01-13T10:11:00.386Z,6.70
2019-01-13T10:13:28.724Z,4.90
2019-01-13T10:15:57.064Z,5.43
2019-01-13T10:18:25.393Z,3.37
2019-01-13T10:20:53.733Z,6.90
2019-01-13T10:23:22.075Z,8.50
2019-01-13T10:25:50.407Z,7.50
2019-01-13T10:28:18.749Z,6.33
2019-01-13T10:30:47.136Z,7.70
2019-01-13T10:33:15.543Z,9.03
2019-01-13T10:35:44.358Z,7.57
2019-01-13T10:38:12.686Z,6.80
2019-01-13T10:40:41.102Z,7.23
2019-01-13T10:43:09.513Z,6.37
2019-01-13T10:45:37.853Z,6.80
2019-01-13T10:48:09.505Z,5.93
2019-01-13T10:50:38.019Z,4.43
2019-01-13T10:53:06.447Z,6.13
2019-01-13T10:55:34.860Z,4.90
2019-01-13T10:58:04.382Z,3.97
2019-01-13T11:00:34.150Z,5.43
2019-01-13T11:03:02.794Z,5.90
2019-01-13T11:05:31.270Z,3.77
2019-01-13T11:07:59.610Z,4.23
2019-01-13T11:10:27.941Z,4.87
2019-01-13T11:12:56.346Z,3.70
2019-01-13T11:15:24.681Z,3.17
2019-01-13T11:17:53.029Z,4.80
2019-01-13T11:20:28.945Z,2.83
2019-01-13T11:22:57.432Z,5.10
2019-01-13T11:25:25.762Z,3.57
2019-01-13T11:27:54.472Z,6.27
2019-01-13T11:30:23.948Z,4.60
2019-01-13T11:32:53.103Z,4.80
2019-01-13T11:35:21.479Z,3.20
2019-01-13T11:37:49.813Z,5.80
2019-01-13T11:40:19.121Z,4.20
2019-01-13T11:42:47.475Z,6.50
2019-01-13T11:45:15.815Z,4.90
2019-01-13T11:47:44.183Z,4.97
2019-01-13T11:50:14.169Z,3.10
2019-01-13T11:52:42.566Z,6.00
2019-01-13T11:55:12.157Z,5.57
2019-01-13T11:57:41.570Z,4.43
2019-01-13T12:00:15.360Z,5.17
2019-01-13T12:02:43.749Z,3.90
2019-01-13T12:05:12.088Z,5.93
2019-01-13T12:07:40.523Z,4.90
2019-01-13T12:10:14.053Z,3.80
2019-01-13T12:12:42.436Z,4.70
2019-01-13T12:15:12.226Z,4.60
2019-01-13T12:17:40.627Z,5.23
2019-01-13T12:20:10.586Z,2.93
2019-01-13T12:22:38.933Z,3.87
2019-01-13T12:25:08.971Z,4.40
2019-01-13T12:27:37.314Z,3.83
2019-01-13T12:30:16.325Z,4.40
2019-01-13T12:32:44.678Z,3.73
2019-01-13T12:35:13.013Z,3.97
2019-01-13T12:37:41.442Z,4.60
2019-01-13T12:40:11.409Z,5.00
2019-01-13T12:42:39.829Z,4.37
2019-01-13T12:45:09.634Z,4.10
2019-01-13T12:47:37.985Z,3.30
2019-01-13T12:50:10.791Z,3.57
2019-01-13T12:52:39.492Z,2.67
2019-01-13T12:55:09.177Z,3.67
2019-01-13T12:57:37.522Z,4.80
2019-01-13T13:00:07.763Z,2.87
2019-01-13T13:02:37.267Z,4.50
2019-01-13T13:05:07.550Z,3.07
2019-01-13T13:07:36.089Z,2.57
2019-01-13T13:10:06.095Z,3.27
2019-01-13T13:12:34.436Z,4.20
2019-01-13T13:15:04.477Z,4.10
2019-01-13T13:17:33.884Z,4.83
2019-01-13T13:20:02.231Z,3.93
2019-01-13T13:22:30.630Z,4.17
2019-01-13T13:24:58.960Z,2.50
2019-01-13T13:27:27.317Z,4.80
2019-01-13T13:29:56.721Z,5.10
2019-01-13T13:32:25.071Z,5.33
2019-01-13T13:34:53.404Z,3.63
2019-01-13T13:37:21.801Z,4.17
2019-01-13T13:39:50.149Z,5.00
2019-01-13T13:42:18.478Z,3.80
2019-01-13T13:44:46.820Z,5.00
2019-01-13T13:47:15.162Z,5.03
2019-01-13T13:49:43.493Z,2.00
2019-01-13T13:52:11.837Z,4.77
2019-01-13T13:54:40.545Z,6.10
2019-01-13T13:57:08.893Z,4.40
2019-01-13T13:59:37.306Z,4.13
2019-01-13T14:02:05.657Z,4.47
2019-01-13T14:04:37.279Z,2.00
2019-01-13T14:07:05.909Z,4.20
2019-01-13T14:09:34.262Z,3.17
2019-01-13T14:12:02.594Z,4.10
2019-01-13T14:14:30.947Z,3.10
2019-01-13T14:16:59.277Z,2.80
2019-01-13T14:19:27.616Z,4.10
2019-01-13T14:21:57.018Z,2.77
2019-01-13T14:24:26.674Z,2.80
2019-01-13T14:26:55.378Z,3.73
2019-01-13T14:29:23.712Z,3.63
2019-01-13T14:31:52.062Z,2.33
2019-01-13T14:34:20.427Z,1.53
2019-01-13T14:36:49.630Z,3.40
2019-01-13T14:39:17.972Z,3.33
2019-01-13T14:41:46.331Z,1.80
2019-01-13T14:44:14.695Z,3.53
2019-01-13T14:46:43.047Z,2.83
2019-01-13T14:49:11.492Z,2.03
2019-01-13T14:51:39.833Z,2.43
2019-01-13T14:54:08.174Z,3.00
2019-01-13T14:56:36.527Z,3.67
2019-01-13T14:59:04.941Z,3.17
2019-01-13T15:01:33.272Z,0.90
2019-01-13T15:04:01.606Z,2.60
2019-01-13T15:06:29.968Z,2.43
2019-01-13T15:08:58.306Z,3.20
2019-01-13T15:11:26.642Z,1.87
2019-01-13T15:13:54.986Z,1.53
2019-01-13T15:16:23.405Z,1.70
2019-01-13T15:18:51.738Z,3.13
2019-01-13T15:21:20.077Z,1.47
2019-01-13T15:23:48.414Z,2.57
2019-01-13T15:26:16.788Z,1.60
2019-01-13T15:28:45.125Z,2.57
2019-01-13T15:31:13.486Z,2.27
2019-01-13T15:33:41.915Z,2.10
2019-01-13T15:36:10.326Z,3.93
2019-01-13T15:38:38.722Z,1.73
2019-01-13T15:41:07.052Z,2.60
2019-01-13T15:43:35.564Z,2.00
2019-01-13T15:46:03.902Z,2.90
2019-01-13T15:48:32.268Z,2.97
2019-01-13T15:51:00.649Z,2.37
2019-01-13T15:53:29.265Z,1.83
2019-01-13T15:55:57.607Z,2.47
2019-01-13T15:58:25.963Z,2.90
2019-01-13T16:00:54.285Z,1.83
2019-01-13T16:03:22.668Z,2.20
2019-01-13T16:05:51.018Z,1.53
2019-01-13T16:08:19.338Z,1.97
2019-01-13T16:10:47.697Z,2.13
2019-01-13T16:13:16.209Z,2.40
2019-01-13T16:15:44.573Z,1.67
2019-01-13T16:18:12.910Z,1.80
2019-01-13T16:20:41.236Z,1.77
2019-01-13T16:23:09.633Z,1.70
2019-01-13T16:25:37.981Z,2.40
2019-01-13T16:28:06.309Z,1.57
2019-01-13T16:30:34.718Z,3.73
2019-01-13T16:33:03.047Z,2.40
2019-01-13T16:35:31.459Z,2.10
2019-01-13T16:38:01.213Z,2.30
2019-01-13T16:40:29.547Z,3.40
2019-01-13T16:42:58.310Z,2.30
2019-01-13T16:45:26.702Z,1.73
2019-01-13T16:47:55.521Z,2.27
2019-01-13T16:50:24.498Z,2.77
2019-01-13T16:52:53.742Z,2.07
2019-01-13T16:55:22.541Z,2.80
2019-01-13T16:57:50.881Z,2.00
2019-01-13T17:00:20.490Z,3.27
2019-01-13T17:02:48.903Z,1.70
2019-01-13T17:05:17.607Z,3.40
2019-01-13T17:07:45.949Z,1.60
2019-01-13T17:10:18.021Z,4.20
2019-01-13T17:12:46.370Z,3.07
2019-01-13T17:15:15.677Z,2.30
2019-01-13T17:17:44.017Z,2.97
2019-01-13T17:20:13.630Z,2.40
2019-01-13T17:22:41.970Z,3.03
2019-01-13T17:25:11.978Z,2.37
2019-01-13T17:27:40.381Z,4.20
2019-01-13T17:30:18.841Z,1.57
2019-01-13T17:32:47.174Z,2.00
2019-01-13T17:35:15.509Z,3.00
2019-01-13T17:37:43.851Z,1.10
2019-01-13T17:40:13.559Z,1.77
2019-01-13T17:42:41.896Z,3.10
2019-01-13T17:45:14.686Z,3.77
2019-01-13T17:47:43.293Z,2.57
2019-01-13T17:50:12.905Z,3.40
2019-01-13T17:52:41.233Z,2.73
2019-01-13T17:55:11.193Z,2.00
2019-01-13T17:57:39.533Z,3.10
2019-01-13T18:00:09.492Z,1.30
2019-01-13T18:02:37.833Z,2.63
2019-01-13T18:05:06.954Z,1.53
2019-01-13T18:07:35.287Z,1.73
2019-01-13T18:10:05.211Z,2.80
2019-01-13T18:12:33.554Z,3.20
2019-01-13T18:15:02.033Z,1.57
2019-01-13T18:17:30.426Z,1.93
2019-01-13T18:19:58.758Z,1.60
2019-01-13T18:22:27.097Z,2.17
2019-01-13T18:24:55.443Z,2.00
2019-01-13T18:27:23.782Z,1.93
2019-01-13T18:29:52.129Z,2.87
2019-01-13T18:32:20.467Z,2.07
2019-01-13T18:34:50.437Z,2.80
2019-01-13T18:37:19.026Z,2.93
2019-01-13T18:39:47.392Z,3.37
2019-01-13T18:42:15.742Z,4.63
2019-01-13T18:44:44.081Z,4.50
2019-01-13T18:47:12.434Z,3.47
2019-01-13T18:49:40.765Z,3.47
2019-01-13T18:52:09.370Z,3.13
2019-01-13T18:54:38.073Z,2.97
2019-01-13T18:57:06.403Z,3.03
2019-01-13T18:59:34.841Z,3.40
2019-01-13T19:02:03.193Z,2.70
2019-01-13T19:04:31.796Z,2.03
2019-01-13T19:07:01.750Z,3.40
2019-01-13T19:09:30.097Z,3.00
2019-01-13T19:11:58.510Z,3.57
2019-01-13T19:14:28.481Z,3.37
2019-01-13T19:16:57.189Z,3.23
2019-01-13T19:19:25.545Z,3.57
2019-01-13T19:21:53.953Z,3.80
2019-01-13T19:24:22.295Z,1.93
2019-01-13T19:26:50.662Z,3.27
2019-01-13T19:29:19.705Z,2.40
2019-01-13T19:31:48.056Z,3.30
2019-01-13T19:34:16.398Z,3.03
2019-01-13T19:36:44.741Z,1.77
2019-01-13T19:39:13.086Z,1.33
2019-01-13T19:41:41.418Z,5.57
2019-01-13T19:44:09.766Z,4.10
2019-01-13T19:46:38.105Z,3.50
2019-01-13T19:49:06.449Z,2.20
2019-01-13T19:51:34.794Z,3.10
2019-01-13T19:54:03.127Z,3.37
2019-01-13T19:56:31.473Z,2.20
2019-01-13T19:58:59.870Z,3.83
2019-01-13T20:01:28.253Z,2.43
2019-01-13T20:03:56.636Z,3.10
2019-01-13T20:06:26.046Z,3.37
2019-01-13T20:08:54.482Z,3.40
2019-01-13T20:11:22.820Z,3.97
2019-01-13T20:13:52.244Z,3.20
2019-01-13T20:16:20.587Z,3.37
2019-01-13T20:18:48.924Z,4.20
2019-01-13T20:21:17.337Z,2.60
2019-01-13T20:23:45.670Z,3.77
2019-01-13T20:26:14.120Z,4.13
2019-01-13T20:28:42.469Z,3.47
2019-01-13T20:31:10.809Z,3.13
2019-01-13T20:33:39.161Z,3.27
2019-01-13T20:36:07.570Z,3.43
2019-01-13T20:38:38.026Z,3.93
2019-01-13T20:41:06.716Z,2.97
2019-01-13T20:43:35.059Z,4.53
2019-01-13T20:46:05.994Z,4.07
2019-01-13T20:48:34.325Z,2.03
2019-01-13T20:51:02.664Z,2.03
2019-01-13T20:53:31.377Z,3.90
2019-01-13T20:55:59.713Z,5.43
2019-01-13T20:58:28.072Z,4.70
2019-01-13T21:00:56.408Z,3.60
2019-01-13T21:03:24.817Z,3.20
2019-01-13T21:05:53.169Z,2.83
2019-01-13T21:08:21.512Z,5.03
2019-01-13T21:10:49.853Z,3.00
2019-01-13T21:13:18.192Z,4.13
2019-01-13T21:15:46.545Z,4.53
2019-01-13T21:18:14.878Z,2.30
2019-01-13T21:20:43.222Z,3.83
2019-01-13T21:23:11.557Z,3.50
2019-01-13T21:25:39.892Z,4.50
2019-01-13T21:28:08.314Z,2.73
2019-01-13T21:30:36.726Z,3.77
2019-01-13T21:33:05.081Z,3.07
2019-01-13T21:35:34.296Z,2.73
2019-01-13T21:38:04.071Z,3.80
2019-01-13T21:40:32.487Z,2.90
2019-01-13T21:43:00.925Z,3.17
2019-01-13T21:45:30.373Z,4.33
2019-01-13T21:47:58.798Z,2.40
2019-01-13T21:50:27.128Z,3.23
2019-01-13T21:52:55.650Z,3.67
2019-01-13T21:55:24.058Z,4.07
2019-01-13T21:57:52.482Z,3.10
2019-01-13T22:00:23.268Z,3.73
2019-01-13T22:02:52.120Z,4.07
2019-01-13T22:05:20.527Z,3.40
2019-01-13T22:07:48.921Z,4.23
2019-01-13T22:10:18.034Z,5.07
2019-01-13T22:12:46.368Z,4.57
2019-01-13T22:15:19.246Z,5.40
2019-01-13T22:17:47.595Z,4.37
2019-01-13T22:20:20.465Z,2.70
2019-01-13T22:22:48.891Z,4.30
2019-01-13T22:25:17.221Z,2.83
2019-01-13T22:27:45.574Z,2.20
2019-01-13T22:30:14.873Z,3.00
2019-01-13T22:32:43.220Z,3.00
2019-01-13T22:35:11.566Z,3.63
2019-01-13T22:37:39.909Z,2.93
2019-01-13T22:40:09.917Z,4.00
2019-01-13T22:42:38.253Z,3.53
2019-01-13T22:45:08.275Z,4.07
2019-01-13T22:47:36.615Z,3.10
2019-01-13T22:50:06.538Z,3.50
2019-01-13T22:52:34.884Z,4.60
2019-01-13T22:55:04.183Z,2.97
2019-01-13T22:57:32.517Z,2.20
2019-01-13T23:00:00.873Z,1.87
2019-01-13T23:02:30.126Z,4.10
2019-01-13T23:04:58.537Z,2.57
2019-01-13T23:07:26.886Z,2.60
2019-01-13T23:09:55.299Z,4.10
2019-01-13T23:12:23.649Z,3.80
2019-01-13T23:14:52.034Z,1.93
2019-01-13T23:17:20.389Z,3.73
2019-01-13T23:19:48.809Z,2.40
2019-01-13T23:22:17.149Z,3.87
2019-01-13T23:24:45.510Z,3.43
2019-01-13T23:27:13.921Z,2.67
2019-01-13T23:29:42.255Z,1.90
2019-01-13T23:32:10.602Z,4.00
2019-01-13T23:34:38.950Z,2.33
2019-01-13T23:37:07.290Z,2.60
2019-01-13T23:39:35.636Z,3.43
2019-01-13T23:42:04.049Z,2.70
2019-01-13T23:44:32.462Z,3.53
2019-01-13T23:47:00.802Z,2.67
2019-01-13T23:49:29.145Z,3.67
2019-01-13T23:51:57.490Z,3.70
2019-01-13T23:54:25.837Z,2.47
2019-01-13T23:56:54.164Z,1.73
2019-01-13T23:59:22.516Z,3.13
